KBIH/BIH METAR and TAF weather

Enter ICAO airport designator
Station Type Date Time Source
KBIH METAR 2022/12/08 11:56 UTC NOAA

KBIH 081156Z AUTO 34005KT 10SM CLR M07/M09 A3026 RMK AO2 SLP252 T10671089 11039 21072 50004


Station Type Date Time Source
KBIH Decoded METAR 2022/12/08 11:56 UTC NOAA

BISHOP AIRPORT, CA, United States (KBIH) 37-22N 118-22W 1253M
Dec 08, 2022 - 06:56 AM EST / 2022.12.08 1156 UTC
Wind: from the NNW (340 degrees) at 6 MPH (5 KT):0
Visibility: 10 mile(s):0
Sky conditions: clear
Temperature: 19.9 F (-6.7 C)
Windchill: 12 F (-11 C):1
Dew Point: 16.0 F (-8.9 C)
Relative Humidity: 84%
Pressure (altimeter): 30.26 in. Hg (1024 hPa)
Pressure tendency: 0.01 inches (0.4 hPa) higher than three hours ago
ob: KBIH 081156Z AUTO 34005KT 10SM CLR M07/M09 A3026 RMK AO2 SLP252 T10671089 11039 21072 50004
cycle: 12

Station Type Date Time Source
KBIH TAF 2022/12/08 12:27 UTC NOAA

TAF KBIH 081124Z 0812/0912 35007KT P6SM FEW200
FM082100 16009KT P6SM SCT200
FM090300 33006KT P6SM BKN200

Example: see airport list